Time;durP1;ratioP1;P1;durP2;ratioP2;P2;SDS_P1;SDS_P2;PMS_P1;PMS_P2;Temp;Humidity;BMP_temperature;BMP_pressure;BME280_temperature;BME280_humidity;BME280_pressure;Samples;Min_cycle;Max_cycle;Signal;HPM_P1;HPM_P2
2023/06/08 00:02:36;;;;;;;11.30;9.50;;;16.30;99.90;;;;;;5036390;28;20483;-74
2023/06/08 00:05:21;;;;;;;12.10;9.40;;;16.10;99.90;;;;;;5027500;28;20500;-74
2023/06/08 00:08:09;;;;;;;11.57;10.17;;;16.00;99.90;;;;;;5034566;28;20431;-74
2023/06/08 00:10:54;;;;;;;11.20;10.10;;;15.90;99.90;;;;;;5035673;28;20478;-74
2023/06/08 00:13:40;;;;;;;12.60;10.43;;;15.90;99.90;;;;;;5041019;28;20468;-74
2023/06/08 00:16:27;;;;;;;14.90;10.17;;;15.90;99.90;;;;;;5019761;28;20419;-74
2023/06/08 00:19:12;;;;;;;11.60;9.40;;;15.90;99.90;;;;;;5028568;28;20466;-74
2023/06/08 00:21:58;;;;;;;16.70;9.90;;;15.90;99.90;;;;;;5038471;28;20615;-74
2023/06/08 00:24:45;;;;;;;12.10;10.03;;;15.80;99.90;;;;;;5038762;28;20452;-74
2023/06/08 00:27:31;;;;;;;12.00;10.00;;;15.80;99.90;;;;;;5024768;28;20446;-74
2023/06/08 00:30:16;;;;;;;13.80;9.87;;;15.70;99.90;;;;;;5033081;28;20473;-74
2023/06/08 00:33:02;;;;;;;11.40;10.17;;;15.70;99.90;;;;;;5031480;28;20435;-74
2023/06/08 00:35:47;;;;;;;9.90;8.90;;;15.70;99.90;;;;;;5036595;28;20449;-74
2023/06/08 00:38:33;;;;;;;12.33;9.90;;;15.70;99.90;;;;;;5037738;28;20456;-74
2023/06/08 00:41:20;;;;;;;11.00;9.90;;;15.70;99.90;;;;;;5032553;28;21026;-74
2023/06/08 00:44:07;;;;;;;10.80;9.60;;;15.70;99.90;;;;;;5030690;28;20448;-74
2023/06/08 00:46:53;;;;;;;13.90;10.33;;;15.60;99.90;;;;;;5032269;28;20436;-74
2023/06/08 00:49:39;;;;;;;13.87;9.60;;;15.60;99.90;;;;;;5035691;28;20472;-74
2023/06/08 00:52:25;;;;;;;10.20;9.27;;;15.60;99.90;;;;;;5035912;28;20451;-74
2023/06/08 00:55:12;;;;;;;11.90;10.37;;;15.50;99.90;;;;;;5033931;28;20525;-74
2023/06/08 00:57:58;;;;;;;10.10;9.10;;;15.30;99.90;;;;;;5031837;28;20441;-74
2023/06/08 01:00:46;;;;;;;13.80;9.23;;;15.30;99.90;;;;;;5022367;28;20521;-74
2023/06/08 01:03:35;;;;;;;10.13;8.97;;;15.40;99.90;;;;;;5028887;28;20437;-74
2023/06/08 01:06:21;;;;;;;10.13;8.73;;;15.30;99.90;;;;;;5034437;28;20452;-74
2023/06/08 01:09:16;;;;;;;10.53;9.40;;;15.30;99.90;;;;;;5028813;28;20626;-74
2023/06/08 01:12:11;;;;;;;10.60;9.57;;;15.30;99.90;;;;;;5034210;28;20441;-74
2023/06/08 01:15:06;;;;;;;11.40;9.73;;;15.30;99.90;;;;;;5026090;28;21076;-74
2023/06/08 01:17:57;;;;;;;17.90;9.60;;;15.40;99.90;;;;;;5031331;28;20442;-74
2023/06/08 01:20:51;;;;;;;9.60;8.60;;;15.40;99.90;;;;;;5031181;28;21236;-74
2023/06/08 01:23:44;;;;;;;12.33;11.00;;;15.40;99.90;;;;;;5042319;28;20436;-74
2023/06/08 01:26:32;;;;;;;11.57;10.37;;;15.20;99.90;;;;;;5026239;28;20508;-74
2023/06/08 01:29:21;;;;;;;13.60;10.47;;;15.10;99.90;;;;;;5025675;28;20562;-74
2023/06/08 01:32:08;;;;;;;11.03;9.83;;;15.10;99.90;;;;;;5029292;28;20457;-74
2023/06/08 01:34:54;;;;;;;10.50;9.50;;;15.20;99.90;;;;;;5031893;28;20461;-74
2023/06/08 01:37:47;;;;;;;9.90;8.90;;;15.20;99.90;;;;;;5043108;28;20448;-74
2023/06/08 01:40:36;;;;;;;11.10;9.37;;;15.20;99.90;;;;;;5024786;28;20474;-74
2023/06/08 01:43:24;;;;;;;10.57;9.57;;;15.20;99.90;;;;;;5025760;28;21281;-74
2023/06/08 01:46:12;;;;;;;10.47;9.43;;;15.20;99.90;;;;;;5027833;28;20461;-74
2023/06/08 01:49:00;;;;;;;9.57;8.60;;;15.30;99.90;;;;;;5031954;28;20467;-74
2023/06/08 01:51:46;;;;;;;10.57;9.47;;;15.30;99.90;;;;;;5029960;28;20415;-74
2023/06/08 01:54:31;;;;;;;10.97;9.83;;;15.20;99.90;;;;;;5035935;28;20451;-74
2023/06/08 01:57:17;;;;;;;10.30;9.30;;;15.10;99.90;;;;;;5034040;28;20448;-74
2023/06/08 02:00:05;;;;;;;11.17;9.43;;;15.10;99.90;;;;;;5028120;28;20459;-73
2023/06/08 02:02:50;;;;;;;9.53;8.63;;;15.10;99.90;;;;;;5034531;28;20515;-74
2023/06/08 02:05:35;;;;;;;10.40;9.30;;;15.10;99.90;;;;;;5033852;28;20448;-74
2023/06/08 02:08:21;;;;;;;10.33;9.10;;;15.00;99.90;;;;;;5026099;28;20514;-75
2023/06/08 02:11:07;;;;;;;9.70;8.83;;;15.00;99.90;;;;;;5036474;28;20523;-74
2023/06/08 02:13:53;;;;;;;11.20;10.10;;;15.00;99.90;;;;;;5033474;28;20583;-74
2023/06/08 02:16:40;;;;;;;21.20;10.27;;;15.00;99.90;;;;;;5040308;28;20452;-74
2023/06/08 02:19:26;;;;;;;10.17;8.87;;;15.10;99.90;;;;;;5030363;28;20495;-74
2023/06/08 02:22:11;;;;;;;10.97;9.30;;;15.20;99.90;;;;;;5033711;28;20546;-74
2023/06/08 02:24:56;;;;;;;10.80;8.83;;;15.00;99.90;;;;;;5021121;28;20432;-74
2023/06/08 02:27:43;;;;;;;14.37;10.00;;;14.90;99.90;;;;;;5036575;28;20462;-74
2023/06/08 02:30:29;;;;;;;14.20;9.70;;;14.90;99.90;;;;;;5044219;28;20594;-74
2023/06/08 02:33:16;;;;;;;9.53;8.60;;;14.90;99.90;;;;;;5044406;28;20447;-74
2023/06/08 02:36:01;;;;;;;10.20;9.20;;;14.80;99.90;;;;;;5029446;28;20888;-74
2023/06/08 02:38:46;;;;;;;11.00;9.90;;;14.80;99.90;;;;;;5035200;28;20423;-74
2023/06/08 02:41:32;;;;;;;11.20;9.47;;;14.80;99.90;;;;;;5029904;28;20436;-74
2023/06/08 02:44:18;;;;;;;11.07;9.90;;;14.80;99.90;;;;;;5031361;28;20484;-74
2023/06/08 02:47:04;;;;;;;11.40;9.13;;;14.80;99.90;;;;;;5024696;28;20958;-74
2023/06/08 02:49:51;;;;;;;12.03;10.67;;;14.80;99.90;;;;;;5027871;28;20471;-74
2023/06/08 02:52:36;;;;;;;14.33;10.17;;;14.60;99.90;;;;;;5028710;28;20438;-74
2023/06/08 02:55:22;;;;;;;11.40;9.33;;;14.60;99.90;;;;;;5039257;28;20448;-74
2023/06/08 02:58:09;;;;;;;13.00;9.47;;;14.60;99.90;;;;;;5027952;28;20433;-74
2023/06/08 03:01:00;;;;;;;10.50;8.90;;;14.60;99.90;;;;;;5028425;28;20547;-73
2023/06/08 03:03:46;;;;;;;10.17;9.17;;;14.80;99.90;;;;;;5028035;28;21314;-74
2023/06/08 03:06:36;;;;;;;18.87;11.37;;;14.80;99.90;;;;;;5032327;28;20496;-74
2023/06/08 03:09:21;;;;;;;11.20;9.80;;;14.70;99.90;;;;;;5044323;28;20835;-74
2023/06/08 03:12:09;;;;;;;35.97;9.80;;;14.50;99.90;;;;;;5043693;28;20960;-74
2023/06/08 03:14:55;;;;;;;10.77;9.67;;;14.50;99.90;;;;;;5033253;28;20464;-74
2023/06/08 03:17:42;;;;;;;11.30;9.63;;;14.40;99.90;;;;;;5030016;28;20431;-74
2023/06/08 03:20:28;;;;;;;16.27;10.10;;;14.40;99.90;;;;;;5029327;28;20486;-74
2023/06/08 03:23:15;;;;;;;10.30;9.20;;;14.40;99.90;;;;;;5038458;28;20574;-74
2023/06/08 03:26:00;;;;;;;10.77;9.60;;;14.40;99.90;;;;;;5038525;28;21498;-74
2023/06/08 03:28:46;;;;;;;10.80;9.53;;;14.50;99.90;;;;;;5032297;28;20453;-74
2023/06/08 03:31:37;;;;;;;15.20;9.23;;;14.50;99.90;;;;;;5038528;28;20440;-74
2023/06/08 03:34:25;;;;;;;15.93;9.30;;;14.50;99.90;;;;;;5044393;28;20822;-74
2023/06/08 03:37:10;;;;;;;10.53;9.27;;;14.40;99.90;;;;;;5041024;28;20576;-74
2023/06/08 03:39:57;;;;;;;10.60;9.50;;;14.50;99.90;;;;;;5031405;28;20469;-74
2023/06/08 03:42:43;;;;;;;10.20;8.80;;;14.50;99.90;;;;;;5030314;28;20603;-74
2023/06/08 03:45:29;;;;;;;9.87;8.97;;;14.60;99.90;;;;;;5033330;28;20448;-74
2023/06/08 03:48:14;;;;;;;11.53;9.53;;;14.60;99.90;;;;;;5041613;28;20506;-74
2023/06/08 03:50:59;;;;;;;9.77;8.70;;;14.50;99.90;;;;;;5039869;28;20508;-74
2023/06/08 03:53:46;;;;;;;10.53;9.50;;;14.50;99.90;;;;;;5036725;28;20912;-74
2023/06/08 03:56:33;;;;;;;10.17;8.43;;;14.50;99.90;;;;;;5034331;28;20420;-74
2023/06/08 03:59:18;;;;;;;17.87;9.30;;;14.60;99.90;;;;;;5032413;28;20477;-74
2023/06/08 04:02:04;;;;;;;9.70;8.70;;;14.60;99.90;;;;;;5031623;28;20509;-74
2023/06/08 04:04:50;;;;;;;10.80;9.80;;;14.60;99.90;;;;;;5043785;28;20421;-74
2023/06/08 04:07:37;;;;;;;11.97;8.70;;;14.50;99.90;;;;;;5031978;28;20449;-74
2023/06/08 04:10:22;;;;;;;10.23;9.23;;;14.50;99.90;;;;;;5030108;28;20518;-74
2023/06/08 04:13:09;;;;;;;10.10;9.20;;;14.60;99.90;;;;;;5036001;28;20436;-74
2023/06/08 04:15:54;;;;;;;10.43;9.43;;;14.60;99.90;;;;;;5031117;28;20419;-74
2023/06/08 04:18:41;;;;;;;10.80;9.60;;;14.50;99.90;;;;;;5033938;28;20472;-74
2023/06/08 04:21:26;;;;;;;14.60;9.90;;;14.50;99.90;;;;;;5034151;28;20435;-74
2023/06/08 04:24:11;;;;;;;19.50;9.27;;;14.60;99.90;;;;;;5031378;28;20481;-74
2023/06/08 04:26:57;;;;;;;10.33;9.33;;;14.70;99.90;;;;;;5035921;28;20439;-74
2023/06/08 04:29:44;;;;;;;10.17;9.27;;;14.90;99.90;;;;;;5031554;28;20467;-74
2023/06/08 04:32:29;;;;;;;11.63;9.23;;;15.00;99.90;;;;;;5026091;28;20449;-74
2023/06/08 04:35:15;;;;;;;12.10;9.10;;;15.10;99.90;;;;;;5041316;28;20553;-74
2023/06/08 04:38:01;;;;;;;10.67;9.33;;;15.10;99.90;;;;;;5037665;28;20444;-74
2023/06/08 04:40:52;;;;;;;11.83;9.97;;;15.10;99.90;;;;;;5034728;28;20535;-74
2023/06/08 04:43:37;;;;;;;12.50;11.20;;;15.20;99.90;;;;;;5032974;28;21024;-74
2023/06/08 04:46:25;;;;;;;11.63;10.50;;;15.20;99.90;;;;;;5030362;28;20454;-74
2023/06/08 04:49:12;;;;;;;10.77;9.77;;;15.20;99.90;;;;;;5024322;28;20571;-74
2023/06/08 04:51:58;;;;;;;11.47;10.27;;;15.30;99.90;;;;;;5025684;28;20506;-74
2023/06/08 04:54:46;;;;;;;14.43;10.23;;;15.40;99.90;;;;;;5036359;28;20438;-74
2023/06/08 04:57:32;;;;;;;11.67;10.47;;;15.40;99.90;;;;;;5043970;28;20440;-74
2023/06/08 05:00:18;;;;;;;11.83;10.00;;;15.50;99.90;;;;;;5018817;28;20516;-74
2023/06/08 05:03:05;;;;;;;11.10;9.93;;;15.60;99.90;;;;;;5033647;28;21084;-74
2023/06/08 05:05:51;;;;;;;12.50;11.30;;;15.70;99.90;;;;;;5038644;28;20452;-74
2023/06/08 05:08:36;;;;;;;14.87;10.47;;;15.80;99.90;;;;;;5030958;28;20416;-74
2023/06/08 05:11:22;;;;;;;12.37;10.50;;;16.00;99.90;;;;;;5033339;28;20976;-74
2023/06/08 05:14:10;;;;;;;11.77;10.47;;;16.10;99.90;;;;;;5031962;28;20443;-74
2023/06/08 05:16:55;;;;;;;12.97;11.33;;;16.20;99.90;;;;;;5037426;28;20531;-74
2023/06/08 05:19:41;;;;;;;10.20;9.20;;;16.30;99.90;;;;;;5040541;28;20988;-74
2023/06/08 05:22:28;;;;;;;11.93;10.77;;;16.50;99.90;;;;;;5039906;28;21211;-74
2023/06/08 05:25:13;;;;;;;11.20;10.10;;;16.70;99.90;;;;;;5032859;28;20450;-74
2023/06/08 05:27:59;;;;;;;11.40;10.30;;;16.90;99.90;;;;;;5039848;28;20439;-74
2023/06/08 05:30:44;;;;;;;11.40;10.30;;;16.90;99.90;;;;;;5015715;28;20486;-73
2023/06/08 05:33:30;;;;;;;12.00;10.77;;;17.00;99.90;;;;;;5027455;28;20448;-72
2023/06/08 05:36:17;;;;;;;12.27;10.40;;;17.00;99.90;;;;;;5033118;28;20468;-73
2023/06/08 05:39:04;;;;;;;11.23;10.13;;;17.20;99.90;;;;;;5041201;28;20459;-73
2023/06/08 05:41:49;;;;;;;12.70;9.60;;;17.30;99.90;;;;;;5029500;28;20457;-73
2023/06/08 05:44:35;;;;;;;13.53;11.43;;;17.40;99.90;;;;;;5032571;28;20473;-73
2023/06/08 05:47:20;;;;;;;10.67;9.67;;;17.60;99.90;;;;;;5031438;28;20449;-73
2023/06/08 05:50:07;;;;;;;15.07;10.07;;;17.70;99.90;;;;;;5031696;28;21008;-73
2023/06/08 05:52:53;;;;;;;10.50;9.60;;;17.90;99.90;;;;;;5036624;28;20824;-73
2023/06/08 05:55:41;;;;;;;10.17;9.27;;;18.00;99.90;;;;;;5027631;28;20453;-73
2023/06/08 05:58:26;;;;;;;10.87;9.80;;;18.10;99.90;;;;;;5020294;28;20589;-73
2023/06/08 06:01:12;;;;;;;11.40;10.30;;;18.20;99.90;;;;;;5022674;28;20452;-74
2023/06/08 06:03:57;;;;;;;12.40;9.90;;;18.40;99.90;;;;;;5023167;28;20495;-73
2023/06/08 06:06:43;;;;;;;15.27;11.50;;;18.50;99.90;;;;;;5032681;28;20969;-73
2023/06/08 06:09:30;;;;;;;15.10;9.50;;;18.60;99.90;;;;;;5036892;28;20463;-73
2023/06/08 06:12:15;;;;;;;10.50;9.50;;;18.70;99.90;;;;;;5027443;28;20810;-73
2023/06/08 06:15:01;;;;;;;10.63;9.43;;;18.90;99.90;;;;;;5027886;28;20417;-74
2023/06/08 06:17:46;;;;;;;11.13;9.70;;;19.10;99.90;;;;;;5028950;28;20464;-73
2023/06/08 06:20:32;;;;;;;11.70;9.77;;;19.20;99.90;;;;;;5029219;28;20471;-74
2023/06/08 06:23:17;;;;;;;12.70;9.80;;;19.40;99.90;;;;;;5029145;28;20469;-73
2023/06/08 06:26:05;;;;;;;10.40;9.30;;;19.50;99.90;;;;;;5029974;28;20899;-74
2023/06/08 06:28:51;;;;;;;10.13;9.13;;;19.60;99.90;;;;;;5030346;28;20448;-73
2023/06/08 06:31:36;;;;;;;9.20;8.40;;;19.60;99.90;;;;;;5029925;28;20440;-73
2023/06/08 06:34:22;;;;;;;13.30;8.80;;;19.80;99.90;;;;;;5035410;28;20420;-74
2023/06/08 06:37:08;;;;;;;10.27;8.93;;;19.90;99.90;;;;;;5034198;28;20551;-73
2023/06/08 06:39:53;;;;;;;10.47;9.37;;;20.00;99.90;;;;;;5029118;28;20457;-73
2023/06/08 06:42:40;;;;;;;10.00;7.97;;;20.10;99.90;;;;;;5027197;28;20970;-73
2023/06/08 06:45:27;;;;;;;10.13;8.30;;;20.20;99.90;;;;;;5029993;28;20444;-73
2023/06/08 06:48:12;;;;;;;10.13;8.00;;;20.40;99.90;;;;;;5027951;28;20873;-74
2023/06/08 06:50:57;;;;;;;9.90;8.90;;;20.40;99.90;;;;;;5030156;28;21012;-73
2023/06/08 06:53:43;;;;;;;11.57;8.13;;;20.50;99.90;;;;;;5049435;28;20462;-73
2023/06/08 06:56:28;;;;;;;8.73;7.93;;;20.60;99.90;;;;;;5022618;28;20440;-73
2023/06/08 06:59:15;;;;;;;8.83;8.00;;;20.70;99.90;;;;;;5034913;28;20974;-73
2023/06/08 07:02:02;;;;;;;8.80;7.90;;;20.80;99.90;;;;;;5041089;28;20474;-74
2023/06/08 07:04:48;;;;;;;9.77;8.07;;;20.80;99.90;;;;;;5033009;28;20474;-73
2023/06/08 07:07:33;;;;;;;10.57;8.93;;;20.90;99.90;;;;;;5033253;28;20781;-74
2023/06/08 07:10:19;;;;;;;9.33;8.23;;;20.80;99.90;;;;;;5042856;28;20467;-72
2023/06/08 07:13:05;;;;;;;8.80;8.00;;;20.80;99.90;;;;;;5038910;28;20436;-73
2023/06/08 07:15:51;;;;;;;9.23;8.33;;;20.80;99.90;;;;;;5037828;28;20957;-73
2023/06/08 07:18:38;;;;;;;9.00;8.00;;;20.90;99.90;;;;;;5038357;28;20437;-73
2023/06/08 07:21:23;;;;;;;9.10;7.93;;;21.00;99.90;;;;;;5045452;28;20855;-73
2023/06/08 07:24:09;;;;;;;13.37;9.20;;;21.00;99.90;;;;;;5043846;28;20523;-72
2023/06/08 07:26:56;;;;;;;13.97;9.30;;;21.00;99.90;;;;;;5042542;28;20945;-73
2023/06/08 07:29:41;;;;;;;11.40;9.10;;;21.10;99.90;;;;;;5036443;28;20467;-73
2023/06/08 07:32:29;;;;;;;12.03;9.00;;;21.10;99.90;;;;;;5049630;28;20478;-73
2023/06/08 07:35:14;;;;;;;10.80;8.80;;;21.20;99.90;;;;;;5045298;28;20438;-73
2023/06/08 07:38:00;;;;;;;9.63;8.63;;;21.30;99.90;;;;;;5032122;28;20424;-73
2023/06/08 07:40:45;;;;;;;12.93;9.47;;;21.40;99.90;;;;;;5050055;28;20534;-73
2023/06/08 07:43:31;;;;;;;9.50;7.63;;;21.50;99.90;;;;;;5037473;28;20475;-72
2023/06/08 07:46:16;;;;;;;9.20;8.30;;;21.60;99.90;;;;;;5035906;28;20434;-73
2023/06/08 07:49:03;;;;;;;8.50;7.50;;;21.80;99.90;;;;;;5033536;28;20447;-73
2023/06/08 07:51:49;;;;;;;9.53;8.53;;;22.00;99.90;;;;;;5052270;28;20462;-73
2023/06/08 07:54:35;;;;;;;9.70;8.50;;;22.00;96.40;;;;;;5042414;28;20887;-73
2023/06/08 07:57:20;;;;;;;11.00;8.50;;;22.10;95.50;;;;;;5044387;28;20942;-74
2023/06/08 08:00:07;;;;;;;9.17;8.27;;;22.10;94.80;;;;;;5043542;28;20461;-73
2023/06/08 08:02:52;;;;;;;9.37;7.93;;;22.10;93.80;;;;;;5035569;28;20437;-73
2023/06/08 08:05:39;;;;;;;9.37;7.50;;;22.10;93.70;;;;;;5028516;28;20432;-73
2023/06/08 08:08:25;;;;;;;9.37;8.47;;;22.20;92.90;;;;;;5050071;28;21059;-73
2023/06/08 08:11:11;;;;;;;15.67;8.30;;;22.40;95.80;;;;;;5047323;28;20978;-73
2023/06/08 08:13:57;;;;;;;9.73;8.63;;;22.30;91.30;;;;;;5040886;28;20428;-73
2023/06/08 08:16:42;;;;;;;10.03;9.00;;;22.40;94.20;;;;;;5049820;28;20443;-73
2023/06/08 08:19:27;;;;;;;11.50;8.83;;;22.50;94.30;;;;;;5027416;28;20469;-73
2023/06/08 08:22:14;;;;;;;13.37;8.43;;;22.50;92.90;;;;;;5040296;28;20427;-73
2023/06/08 08:25:00;;;;;;;10.23;9.23;;;22.60;94.20;;;;;;5026679;28;20469;-73
2023/06/08 08:27:45;;;;;;;13.20;9.50;;;22.70;92.30;;;;;;5025748;28;20860;-73
2023/06/08 08:30:31;;;;;;;9.67;8.63;;;22.70;92.30;;;;;;5037535;28;20601;-73
2023/06/08 08:33:16;;;;;;;15.63;8.63;;;22.80;91.20;;;;;;5027290;28;20436;-73
2023/06/08 08:36:02;;;;;;;9.60;8.57;;;22.90;90.20;;;;;;5033325;28;20933;-72
2023/06/08 08:38:49;;;;;;;9.53;8.53;;;22.90;88.30;;;;;;5034688;28;20428;-73
2023/06/08 08:41:35;;;;;;;10.30;9.30;;;23.00;87.60;;;;;;5040555;28;20428;-73
2023/06/08 08:44:22;;;;;;;10.20;9.20;;;23.00;89.70;;;;;;5042646;28;20603;-73
2023/06/08 08:47:10;;;;;;;17.30;9.00;;;23.10;87.70;;;;;;5040612;28;20436;-73
2023/06/08 08:50:03;;;;;;;9.33;8.33;;;23.10;83.00;;;;;;5035594;28;20468;-73
2023/06/08 08:52:53;;;;;;;10.50;9.40;;;23.20;86.50;;;;;;5041464;28;20919;-73
2023/06/08 08:55:41;;;;;;;9.93;8.93;;;23.30;90.30;;;;;;5040093;28;20753;-73
2023/06/08 08:58:27;;;;;;;11.77;9.93;;;23.40;88.30;;;;;;5042020;28;20479;-73
2023/06/08 09:01:13;;;;;;;10.30;9.07;;;23.50;85.60;;;;;;5034091;28;20457;-73
2023/06/08 09:03:59;;;;;;;10.37;9.27;;;23.50;82.80;;;;;;5023769;28;20476;-74
2023/06/08 09:06:48;;;;;;;9.80;8.90;;;23.50;78.60;;;;;;5038189;28;20519;-74
2023/06/08 09:09:33;;;;;;;10.93;9.07;;;23.50;81.00;;;;;;5046393;28;20960;-73
2023/06/08 09:12:20;;;;;;;9.10;8.20;;;23.60;80.40;;;;;;5051086;28;20431;-74
2023/06/08 09:15:08;;;;;;;10.33;9.30;;;23.70;77.60;;;;;;5048623;28;20520;-74
2023/06/08 09:17:54;;;;;;;11.00;9.40;;;23.70;77.60;;;;;;5042603;28;20487;-74
2023/06/08 09:20:39;;;;;;;9.70;8.70;;;23.70;79.30;;;;;;5045639;28;20472;-73
2023/06/08 09:23:26;;;;;;;12.47;8.87;;;23.50;75.10;;;;;;5049627;28;20977;-73
2023/06/08 09:26:13;;;;;;;9.90;9.00;;;23.60;80.00;;;;;;5037651;28;20498;-74
2023/06/08 09:29:01;;;;;;;12.53;9.13;;;23.60;78.70;;;;;;5035752;28;20433;-73
2023/06/08 09:31:50;;;;;;;8.93;8.13;;;23.80;76.90;;;;;;5034647;28;20940;-74
2023/06/08 09:34:50;;;;;;;10.00;9.10;;;24.00;78.40;;;;;;5044794;28;20428;-73
2023/06/08 09:37:37;;;;;;;10.37;9.00;;;24.10;74.70;;;;;;5048950;28;20436;-74
2023/06/08 09:40:22;;;;;;;9.50;8.60;;;23.90;73.70;;;;;;5046327;28;20451;-74
2023/06/08 09:43:07;;;;;;;10.33;9.30;;;24.00;75.10;;;;;;5044789;28;20651;-74
2023/06/08 09:45:54;;;;;;;9.17;8.27;;;23.80;72.50;;;;;;5045291;28;20973;-74
2023/06/08 09:48:40;;;;;;;12.00;9.20;;;23.80;73.10;;;;;;5031367;28;20465;-74
2023/06/08 09:51:26;;;;;;;8.80;7.90;;;24.00;74.60;;;;;;5041972;28;21064;-74
2023/06/08 09:54:14;;;;;;;8.77;7.70;;;24.20;71.00;;;;;;5039630;28;20417;-74
2023/06/08 09:57:01;;;;;;;9.17;8.07;;;24.40;68.00;;;;;;5028193;28;20471;-73
2023/06/08 09:59:52;;;;;;;8.93;8.07;;;24.50;65.90;;;;;;5048576;28;20459;-73
2023/06/08 10:02:43;;;;;;;7.83;7.10;;;24.80;67.50;;;;;;5045843;28;20839;-74
2023/06/08 10:05:33;;;;;;;9.80;8.17;;;24.90;63.20;;;;;;5039390;28;20558;-74
2023/06/08 10:08:22;;;;;;;8.73;7.27;;;25.10;63.40;;;;;;5040868;28;20432;-74
2023/06/08 10:11:10;;;;;;;11.23;7.80;;;25.30;61.50;;;;;;5050389;28;20424;-74
2023/06/08 10:13:57;;;;;;;7.80;7.00;;;25.40;57.50;;;;;;5046247;28;20425;-74
2023/06/08 10:16:43;;;;;;;10.67;8.10;;;25.50;55.20;;;;;;5049208;28;20429;-74
2023/06/08 10:19:32;;;;;;;7.90;7.13;;;25.60;55.00;;;;;;5037774;28;20486;-74
2023/06/08 10:22:18;;;;;;;7.40;6.70;;;25.60;52.80;;;;;;5032364;28;20814;-74
2023/06/08 10:25:04;;;;;;;8.80;8.00;;;25.70;55.40;;;;;;5032797;28;20848;-74
2023/06/08 10:27:50;;;;;;;8.77;7.87;;;25.70;59.20;;;;;;5047902;28;20421;-74
2023/06/08 10:30:41;;;;;;;8.23;7.43;;;25.90;58.90;;;;;;5041048;28;20462;-73
2023/06/08 10:33:31;;;;;;;8.60;7.60;;;26.10;52.80;;;;;;5049521;28;20962;-74
2023/06/08 10:36:19;;;;;;;12.90;7.43;;;26.20;52.70;;;;;;5039742;28;20445;-74
2023/06/08 10:39:10;;;;;;;9.40;7.10;;;26.30;51.20;;;;;;5040384;28;20503;-74
2023/06/08 10:41:57;;;;;;;7.90;6.50;;;26.30;49.70;;;;;;5032527;28;20937;-73
2023/06/08 10:44:42;;;;;;;7.77;6.80;;;26.30;50.40;;;;;;5049352;28;20544;-73
2023/06/08 10:47:31;;;;;;;9.63;8.07;;;26.10;49.90;;;;;;5050703;28;20423;-73
2023/06/08 10:50:19;;;;;;;9.67;7.60;;;25.90;50.30;;;;;;5046441;28;20451;-73
2023/06/08 10:53:07;;;;;;;9.87;7.73;;;25.70;52.60;;;;;;5033815;28;20428;-72
2023/06/08 10:55:53;;;;;;;9.30;6.83;;;25.60;53.50;;;;;;5033611;28;20538;-73
2023/06/08 10:58:52;;;;;;;7.43;6.70;;;25.50;53.70;;;;;;5050515;28;20428;-72
2023/06/08 11:01:37;;;;;;;8.93;7.60;;;25.40;52.20;;;;;;5038933;28;20461;-72
2023/06/08 11:04:27;;;;;;;8.40;6.50;;;25.30;51.30;;;;;;5041351;28;20468;-73
2023/06/08 11:07:13;;;;;;;8.03;6.73;;;25.20;53.70;;;;;;5048331;28;20779;-73
2023/06/08 11:10:03;;;;;;;9.07;7.20;;;25.10;55.00;;;;;;5035784;28;20814;-72
2023/06/08 11:12:48;;;;;;;9.77;7.73;;;25.00;56.80;;;;;;5035042;28;20494;-73
2023/06/08 11:15:36;;;;;;;8.00;7.07;;;25.00;58.60;;;;;;5047934;28;20434;-73
2023/06/08 11:18:21;;;;;;;8.33;7.53;;;25.10;59.40;;;;;;5045402;28;20805;-73
2023/06/08 11:21:06;;;;;;;12.90;7.43;;;25.00;61.90;;;;;;5036194;28;20452;-73
2023/06/08 11:23:52;;;;;;;11.70;8.30;;;24.80;60.70;;;;;;5045919;28;20495;-73
2023/06/08 11:26:39;;;;;;;9.70;8.10;;;24.70;62.70;;;;;;5048911;28;20439;-72
2023/06/08 11:29:24;;;;;;;8.87;7.33;;;24.50;64.00;;;;;;5034850;28;20808;-72
2023/06/08 11:32:11;;;;;;;7.97;6.93;;;24.30;65.50;;;;;;5036253;28;20506;-73
2023/06/08 11:34:57;;;;;;;11.73;7.63;;;24.10;68.30;;;;;;5053712;28;20417;-72
2023/06/08 11:37:43;;;;;;;14.43;8.80;;;24.00;69.70;;;;;;5051782;28;20447;-73
2023/06/08 11:40:29;;;;;;;13.93;11.50;;;24.00;72.30;;;;;;5046505;28;20533;-73
2023/06/08 11:43:16;;;;;;;10.33;8.80;;;23.80;77.20;;;;;;5042307;28;20439;-72
2023/06/08 11:46:02;;;;;;;12.17;9.90;;;23.60;78.50;;;;;;5045698;28;20605;-73
2023/06/08 11:48:47;;;;;;;8.50;7.60;;;23.50;74.80;;;;;;5050390;28;20483;-73
2023/06/08 11:51:32;;;;;;;9.27;8.00;;;23.40;75.30;;;;;;5053423;28;20428;-72
2023/06/08 11:54:18;;;;;;;11.37;8.40;;;23.30;76.90;;;;;;5052850;28;20803;-73
2023/06/08 11:57:05;;;;;;;9.83;7.97;;;23.20;83.30;;;;;;5041083;28;20428;-73
2023/06/08 11:59:52;;;;;;;8.57;7.77;;;23.10;86.80;;;;;;5050813;28;20452;-73
2023/06/08 12:02:37;;;;;;;7.90;7.10;;;22.90;89.20;;;;;;5050201;28;20412;-73
2023/06/08 12:05:25;;;;;;;9.03;7.60;;;22.70;89.10;;;;;;5040019;28;20603;-73
2023/06/08 12:08:14;;;;;;;18.90;14.50;;;22.70;90.90;;;;;;5040370;28;20435;-72
2023/06/08 12:11:07;;;;;;;8.60;7.30;;;22.50;91.20;;;;;;5048981;28;20486;-73
2023/06/08 12:13:54;;;;;;;13.00;9.03;;;22.30;91.60;;;;;;5052250;28;20444;-73
2023/06/08 12:16:45;;;;;;;11.00;6.53;;;22.20;92.90;;;;;;5048048;28;20539;-73
2023/06/08 12:19:31;;;;;;;9.33;8.43;;;22.10;95.40;;;;;;5052692;28;20803;-72
2023/06/08 12:22:17;;;;;;;10.20;9.20;;;22.00;99.90;;;;;;5052943;28;20420;-73
2023/06/08 12:25:02;;;;;;;10.20;8.73;;;21.90;99.90;;;;;;5046501;28;20464;-73
2023/06/08 12:27:49;;;;;;;8.53;7.77;;;21.80;99.90;;;;;;5036663;28;20436;-73
2023/06/08 12:30:34;;;;;;;16.70;9.47;;;21.70;99.90;;;;;;5051192;28;20452;-72
2023/06/08 12:33:21;;;;;;;8.23;7.33;;;21.70;99.90;;;;;;5045790;28;20428;-73
2023/06/08 12:36:07;;;;;;;15.80;7.73;;;21.60;99.60;;;;;;5039579;28;20424;-72
2023/06/08 12:38:52;;;;;;;11.03;7.50;;;21.60;98.10;;;;;;5024406;28;20440;-72
2023/06/08 12:41:38;;;;;;;8.27;7.13;;;21.60;97.60;;;;;;5046715;28;20483;-73
2023/06/08 12:44:24;;;;;;;7.20;6.40;;;21.60;93.40;;;;;;5051227;28;20496;-72
2023/06/08 12:47:09;;;;;;;7.00;6.23;;;21.60;91.10;;;;;;5033395;28;20781;-73
2023/06/08 12:49:55;;;;;;;7.10;6.37;;;21.50;91.80;;;;;;5051565;28;20520;-73
2023/06/08 12:52:42;;;;;;;8.13;6.83;;;21.60;91.80;;;;;;5049671;28;20904;-73
2023/06/08 12:55:26;;;;;;;12.50;7.43;;;21.60;92.20;;;;;;5043102;28;20444;-73
2023/06/08 12:58:16;;;;;;;7.00;6.13;;;21.60;92.40;;;;;;5049409;28;20572;-73
2023/06/08 13:01:01;;;;;;;13.43;6.83;;;21.50;88.60;;;;;;5047123;28;20447;-73
2023/06/08 13:03:47;;;;;;;8.07;6.90;;;21.40;92.30;;;;;;5043214;28;20567;-72
2023/06/08 13:06:33;;;;;;;7.23;6.50;;;21.40;93.20;;;;;;5051902;28;20464;-72
2023/06/08 13:09:19;;;;;;;9.73;6.50;;;21.40;94.10;;;;;;5048389;28;20505;-73
2023/06/08 13:12:06;;;;;;;9.17;7.10;;;21.40;95.70;;;;;;5046330;28;20439;-72
2023/06/08 13:14:51;;;;;;;8.27;6.63;;;21.40;96.60;;;;;;5047512;28;20571;-73
2023/06/08 13:17:37;;;;;;;15.27;7.10;;;21.50;98.60;;;;;;5041913;28;20468;-72
2023/06/08 13:20:22;;;;;;;11.10;7.80;;;21.50;99.60;;;;;;5041217;28;20499;-73
2023/06/08 13:23:09;;;;;;;7.90;7.10;;;21.60;98.30;;;;;;5051715;28;20502;-72
2023/06/08 13:25:55;;;;;;;8.20;7.23;;;21.60;95.20;;;;;;5048480;28;20472;-72
2023/06/08 13:28:40;;;;;;;10.77;7.30;;;21.60;95.80;;;;;;5036545;28;20460;-72
2023/06/08 13:31:26;;;;;;;11.83;7.23;;;21.60;94.60;;;;;;5046745;28;20523;-73
2023/06/08 13:34:11;;;;;;;8.70;7.20;;;21.60;94.10;;;;;;5043193;28;20539;-73
2023/06/08 13:36:57;;;;;;;8.63;6.67;;;21.80;92.70;;;;;;5042750;28;20431;-72
2023/06/08 13:39:44;;;;;;;8.77;7.87;;;22.00;91.10;;;;;;5045460;28;20463;-72
2023/06/08 13:42:30;;;;;;;9.93;7.20;;;22.20;90.20;;;;;;5046180;28;20530;-74
2023/06/08 13:45:15;;;;;;;8.37;7.50;;;22.60;88.20;;;;;;5033630;28;20823;-72
2023/06/08 13:48:01;;;;;;;9.97;6.30;;;23.00;86.80;;;;;;5051528;28;20424;-73
2023/06/08 13:50:47;;;;;;;10.10;6.60;;;23.40;82.70;;;;;;5044516;28;20599;-72
2023/06/08 13:53:32;;;;;;;7.50;6.70;;;23.80;76.50;;;;;;5051132;28;20428;-72
2023/06/08 13:56:20;;;;;;;10.67;6.20;;;24.20;70.40;;;;;;5051143;28;20424;-72
2023/06/08 13:59:05;;;;;;;7.77;6.23;;;24.40;65.10;;;;;;5042874;28;20957;-72
2023/06/08 14:01:50;;;;;;;10.40;6.50;;;24.70;58.40;;;;;;5050078;28;20980;-73
2023/06/08 14:04:36;;;;;;;7.70;5.60;;;25.00;53.50;;;;;;5050891;28;20792;-72
2023/06/08 14:07:21;;;;;;;8.10;6.20;;;25.20;51.60;;;;;;5046345;28;20438;-72
2023/06/08 14:10:08;;;;;;;7.07;5.50;;;25.50;47.70;;;;;;5051340;28;20977;-73
2023/06/08 14:12:55;;;;;;;7.00;5.57;;;25.70;36.50;;;;;;5050902;28;20436;-73
2023/06/08 14:15:41;;;;;;;9.23;6.07;;;25.90;33.50;;;;;;5051062;28;20972;-73
2023/06/08 14:18:27;;;;;;;7.33;4.80;;;26.20;36.50;;;;;;5047645;28;20506;-73